Time;durP1;ratioP1;P1;durP2;ratioP2;P2;SDS_P1;SDS_P2;PMS_P1;PMS_P2;Temp;Humidity;BMP_temperature;BMP_pressure;BME280_temperature;BME280_humidity;BME280_pressure;Samples;Min_cycle;Max_cycle;Signal;HPM_P1;HPM_P2
2022/03/12 00:01:18;;;;;;;21.80;9.75;;;2.70;82.70;;;;;;5094534;28;20048;-72
2022/03/12 00:03:44;;;;;;;18.20;8.77;;;2.70;84.80;;;;;;5094198;28;20070;-72
2022/03/12 00:06:09;;;;;;;21.65;9.70;;;2.70;84.20;;;;;;5094108;28;20027;-72
2022/03/12 00:08:43;;;;;;;19.02;8.95;;;2.80;84.20;;;;;;5094051;28;20043;-72
2022/03/12 00:11:14;;;;;;;19.95;9.25;;;2.80;83.80;;;;;;5094416;28;20456;-72
2022/03/12 00:13:40;;;;;;;21.27;8.50;;;2.70;84.30;;;;;;5093977;28;20028;-72
2022/03/12 00:16:15;;;;;;;19.20;8.60;;;2.60;84.90;;;;;;5094016;28;20103;-72
2022/03/12 00:18:42;;;;;;;24.55;9.93;;;2.70;83.90;;;;;;5094123;28;20123;-72
2022/03/12 00:21:12;;;;;;;17.08;8.63;;;2.70;85.20;;;;;;5093746;28;20032;-72
2022/03/12 00:23:44;;;;;;;21.48;8.95;;;2.70;85.00;;;;;;5094089;28;20017;-72
2022/03/12 00:26:10;;;;;;;20.90;8.10;;;2.60;86.10;;;;;;5094268;28;20020;-72
2022/03/12 00:28:35;;;;;;;23.52;9.73;;;2.60;85.20;;;;;;5093819;28;20027;-72
2022/03/12 00:31:01;;;;;;;23.92;9.38;;;2.60;85.60;;;;;;5093848;28;20030;-72
2022/03/12 00:33:27;;;;;;;23.92;9.88;;;2.40;88.00;;;;;;5093921;28;20103;-72
2022/03/12 00:35:55;;;;;;;27.27;9.20;;;2.40;88.60;;;;;;5094299;28;20048;-72
2022/03/12 00:38:23;;;;;;;21.52;9.20;;;2.40;89.10;;;;;;5097608;28;20054;-72
2022/03/12 00:40:49;;;;;;;20.27;9.95;;;2.30;90.30;;;;;;5097860;28;20063;-72
2022/03/12 00:43:16;;;;;;;22.50;9.55;;;2.20;91.10;;;;;;5097964;28;20099;-72
2022/03/12 00:45:42;;;;;;;23.70;8.60;;;2.10;91.30;;;;;;5097957;28;20027;-72
2022/03/12 00:48:08;;;;;;;27.15;10.13;;;2.10;91.80;;;;;;5097981;28;20020;-72
2022/03/12 00:50:33;;;;;;;26.25;10.13;;;2.10;91.50;;;;;;5097605;28;20036;-72
2022/03/12 00:53:00;;;;;;;16.23;9.25;;;2.20;91.60;;;;;;5097544;28;20429;-72
2022/03/12 00:55:25;;;;;;;24.33;9.65;;;2.10;91.80;;;;;;5097864;28;20020;-72
2022/03/12 00:57:51;;;;;;;20.80;9.10;;;2.10;92.00;;;;;;5097530;28;20150;-72
2022/03/12 01:00:19;;;;;;;24.50;10.63;;;2.10;91.80;;;;;;5097290;28;20024;-72
2022/03/12 01:02:45;;;;;;;25.05;10.02;;;2.20;91.80;;;;;;5097483;28;20032;-72
2022/03/12 01:05:14;;;;;;;22.33;8.85;;;2.20;91.40;;;;;;5097236;28;20099;-72
2022/03/12 01:07:39;;;;;;;23.60;8.77;;;2.30;91.10;;;;;;5097148;28;20016;-72
2022/03/12 01:10:05;;;;;;;27.38;11.05;;;2.30;90.40;;;;;;5097660;28;20050;-72
2022/03/12 01:12:31;;;;;;;23.17;10.00;;;2.30;90.90;;;;;;5097396;28;20028;-72
2022/03/12 01:14:57;;;;;;;26.40;10.73;;;2.20;91.10;;;;;;5097099;28;20529;-72
2022/03/12 01:17:23;;;;;;;25.85;10.93;;;2.30;90.40;;;;;;5096976;28;20060;-72
2022/03/12 01:19:48;;;;;;;26.35;9.90;;;2.20;91.00;;;;;;5097229;28;20068;-72
2022/03/12 01:22:19;;;;;;;22.88;10.10;;;2.20;91.20;;;;;;5096978;28;20031;-72
2022/03/12 01:24:46;;;;;;;26.25;10.55;;;2.20;91.60;;;;;;5097242;28;20023;-72
2022/03/12 01:27:11;;;;;;;26.08;10.80;;;2.10;91.80;;;;;;5096769;28;20123;-72
2022/03/12 01:29:37;;;;;;;21.48;10.15;;;2.10;92.40;;;;;;5096818;28;20482;-72
2022/03/12 01:32:03;;;;;;;21.67;9.90;;;2.00;92.10;;;;;;5096957;28;20028;-72
2022/03/12 01:34:29;;;;;;;21.88;10.25;;;2.00;92.40;;;;;;5096991;28;20028;-72
2022/03/12 01:36:55;;;;;;;26.50;11.88;;;2.00;92.20;;;;;;5096648;28;20028;-72
2022/03/12 01:39:21;;;;;;;23.95;9.48;;;2.10;91.50;;;;;;5096540;28;20031;-72
2022/03/12 01:41:46;;;;;;;19.15;10.43;;;2.10;92.20;;;;;;5096569;28;20031;-72
2022/03/12 01:44:14;;;;;;;20.73;10.15;;;2.00;91.70;;;;;;5096818;28;20468;-72
2022/03/12 01:46:45;;;;;;;20.23;9.23;;;1.90;92.40;;;;;;5096607;28;20024;-72
2022/03/12 01:49:16;;;;;;;28.88;10.70;;;2.00;91.80;;;;;;5095252;28;20045;-72
2022/03/12 01:51:44;;;;;;;19.17;9.85;;;1.90;92.60;;;;;;5097076;28;20488;-72
2022/03/12 01:54:11;;;;;;;24.58;9.80;;;1.90;92.80;;;;;;5096538;28;20016;-72
2022/03/12 01:56:38;;;;;;;18.48;9.77;;;1.80;93.00;;;;;;5096436;28;20024;-72
2022/03/12 01:59:05;;;;;;;20.52;9.75;;;1.90;92.90;;;;;;5096213;28;20020;-72
2022/03/12 02:01:32;;;;;;;27.90;10.95;;;1.90;92.60;;;;;;5096490;28;20044;-72
2022/03/12 02:04:02;;;;;;;19.98;9.73;;;1.80;92.90;;;;;;5096230;28;20032;-72
2022/03/12 02:06:27;;;;;;;27.02;11.35;;;1.80;92.70;;;;;;5096429;28;20012;-72
2022/03/12 02:08:58;;;;;;;32.58;10.07;;;1.70;93.20;;;;;;5096220;28;20020;-72
2022/03/12 02:11:28;;;;;;;21.38;9.40;;;1.80;92.90;;;;;;5096329;28;20055;-72
2022/03/12 02:14:07;;;;;;;22.98;10.77;;;1.80;92.90;;;;;;5097092;28;20016;-72
2022/03/12 02:16:34;;;;;;;22.75;10.02;;;1.70;92.50;;;;;;5094848;28;20484;-72
2022/03/12 02:19:00;;;;;;;24.92;9.98;;;1.60;93.60;;;;;;5095597;28;20072;-72
2022/03/12 02:21:50;;;;;;;27.17;9.38;;;1.60;94.30;;;;;;5095903;28;20488;-72
2022/03/12 02:24:18;;;;;;;22.02;10.80;;;1.60;93.70;;;;;;5096181;28;20024;-72
2022/03/12 02:26:45;;;;;;;18.67;9.20;;;1.60;93.80;;;;;;5095714;28;20024;-72
2022/03/12 02:29:12;;;;;;;31.67;10.82;;;1.50;94.50;;;;;;5095639;28;20474;-72
2022/03/12 02:31:45;;;;;;;18.25;8.75;;;1.50;94.90;;;;;;5095861;28;20024;-72
2022/03/12 02:34:12;;;;;;;19.95;9.95;;;1.50;95.00;;;;;;5095973;28;20107;-72
2022/03/12 02:36:40;;;;;;;24.63;10.35;;;1.50;94.70;;;;;;5095564;28;20387;-72
2022/03/12 02:39:07;;;;;;;20.90;9.63;;;1.50;94.70;;;;;;5095294;28;20020;-72
2022/03/12 02:41:33;;;;;;;22.52;9.15;;;1.40;94.70;;;;;;5095710;28;20032;-72
2022/03/12 02:43:59;;;;;;;21.17;9.05;;;1.40;95.50;;;;;;5095967;28;20451;-72
2022/03/12 02:46:29;;;;;;;18.70;9.40;;;1.30;95.50;;;;;;5095605;28;20032;-72
2022/03/12 02:48:56;;;;;;;25.83;10.38;;;1.30;96.10;;;;;;5095562;28;20073;-72
2022/03/12 02:51:22;;;;;;;22.23;9.00;;;1.20;95.90;;;;;;5095262;28;20020;-72
2022/03/12 02:53:53;;;;;;;22.85;10.65;;;1.20;96.40;;;;;;5095203;28;20027;-72
2022/03/12 02:56:19;;;;;;;20.55;8.80;;;1.20;96.50;;;;;;5095391;28;20026;-72
2022/03/12 02:58:45;;;;;;;21.45;10.13;;;1.30;96.30;;;;;;5095707;28;20019;-72
2022/03/12 03:01:14;;;;;;;18.55;9.95;;;1.20;96.60;;;;;;5095024;28;20024;-72
2022/03/12 03:03:45;;;;;;;22.50;9.00;;;1.20;97.10;;;;;;5095350;28;20078;-72
2022/03/12 03:06:14;;;;;;;23.73;9.30;;;1.20;96.80;;;;;;5095092;28;20025;-72
2022/03/12 03:08:40;;;;;;;26.73;10.30;;;1.20;96.70;;;;;;5095031;28;20042;-72
2022/03/12 03:11:12;;;;;;;23.73;9.07;;;1.10;96.90;;;;;;5095040;28;20032;-72
2022/03/12 03:13:44;;;;;;;25.00;10.13;;;1.10;97.90;;;;;;5094825;28;20027;-72
2022/03/12 03:16:21;;;;;;;20.00;9.55;;;1.00;98.00;;;;;;5095121;28;20059;-72
2022/03/12 03:18:52;;;;;;;23.92;9.38;;;1.00;98.40;;;;;;5095188;28;20046;-72
2022/03/12 03:21:20;;;;;;;25.83;9.55;;;1.00;98.20;;;;;;5094633;28;20016;-72
2022/03/12 03:23:46;;;;;;;29.75;10.20;;;1.00;98.60;;;;;;5094868;28;20074;-72
2022/03/12 03:26:14;;;;;;;22.05;8.93;;;0.90;99.00;;;;;;5094770;28;20104;-72
2022/03/12 03:28:41;;;;;;;23.40;9.23;;;1.00;98.40;;;;;;5094571;28;20031;-72
2022/03/12 03:31:07;;;;;;;24.33;10.55;;;0.90;99.40;;;;;;5094518;28;20038;-72
2022/03/12 03:33:33;;;;;;;22.70;9.05;;;0.90;99.40;;;;;;5094511;28;20103;-72
2022/03/12 03:35:59;;;;;;;20.17;9.05;;;0.90;99.20;;;;;;5094552;28;20027;-72
2022/03/12 03:38:25;;;;;;;24.88;9.27;;;0.90;98.90;;;;;;5094469;28;20027;-72
2022/03/12 03:40:51;;;;;;;22.50;8.85;;;0.90;99.40;;;;;;5094409;28;20039;-72
2022/03/12 03:43:22;;;;;;;18.65;9.00;;;1.00;98.80;;;;;;5094477;28;20536;-72
2022/03/12 03:45:54;;;;;;;18.73;9.50;;;1.00;99.00;;;;;;5093169;28;20064;-72
2022/03/12 03:48:22;;;;;;;27.15;9.40;;;1.10;97.60;;;;;;5094528;28;20521;-72
2022/03/12 03:50:49;;;;;;;23.35;9.07;;;1.00;98.60;;;;;;5093190;28;20032;-72
2022/03/12 03:53:17;;;;;;;22.08;8.43;;;1.00;98.80;;;;;;5094537;28;20039;-72
2022/03/12 03:55:44;;;;;;;23.23;8.63;;;0.90;98.60;;;;;;5094168;28;20020;-72
2022/03/12 03:58:12;;;;;;;20.90;8.73;;;0.90;98.50;;;;;;5094134;28;20103;-72
2022/03/12 04:00:39;;;;;;;24.88;8.85;;;0.90;99.30;;;;;;5094112;28;20032;-72
2022/03/12 04:03:04;;;;;;;22.73;9.32;;;0.80;99.40;;;;;;5094324;28;20103;-72
2022/03/12 04:05:38;;;;;;;19.65;8.55;;;0.80;99.70;;;;;;5094103;28;20044;-72
2022/03/12 04:08:06;;;;;;;;;;;0.70;99.70;;;;;;5094483;28;20066;-72
2022/03/12 04:10:33;;;;;;;28.92;9.05;;;0.80;99.60;;;;;;5094334;28;19943;-72
2022/03/12 04:12:59;;;;;;;27.67;9.50;;;0.80;99.80;;;;;;5097273;28;20097;-72
2022/03/12 04:15:25;;;;;;;23.67;10.00;;;0.80;99.50;;;;;;5098262;28;20472;-72
2022/03/12 04:17:52;;;;;;;20.77;9.50;;;0.70;99.90;;;;;;5097977;28;20085;-72
2022/03/12 04:20:22;;;;;;;21.10;9.10;;;0.60;99.90;;;;;;5096928;28;20032;-72
2022/03/12 04:22:50;;;;;;;29.23;9.18;;;0.60;99.90;;;;;;5098507;28;20016;-72
2022/03/12 04:25:17;;;;;;;23.75;8.70;;;0.50;99.90;;;;;;5098187;28;20476;-72
2022/03/12 04:27:44;;;;;;;20.98;9.90;;;0.50;99.90;;;;;;5096811;28;20044;-72
2022/03/12 04:30:14;;;;;;;18.25;9.18;;;0.50;99.90;;;;;;5097984;28;20024;-73
2022/03/12 04:32:40;;;;;;;27.88;9.85;;;0.50;99.90;;;;;;5098069;28;20024;-72
2022/03/12 04:35:06;;;;;;;26.75;10.32;;;0.50;99.90;;;;;;5098012;28;20081;-72
2022/03/12 04:37:34;;;;;;;19.77;8.75;;;0.50;99.90;;;;;;5097810;28;20020;-72
2022/03/12 04:39:59;;;;;;;21.77;9.68;;;0.30;99.90;;;;;;5098078;28;20380;-72
2022/03/12 04:42:25;;;;;;;23.10;7.85;;;0.20;99.90;;;;;;5098027;28;20017;-72
2022/03/12 04:44:51;;;;;;;18.98;8.65;;;0.40;99.90;;;;;;5097715;28;20028;-72
2022/03/12 04:47:22;;;;;;;19.77;8.43;;;0.40;99.90;;;;;;5097560;28;20062;-72
2022/03/12 04:49:47;;;;;;;21.10;10.02;;;0.40;99.90;;;;;;5097883;28;20020;-72
2022/03/12 04:52:13;;;;;;;24.02;8.27;;;0.30;99.90;;;;;;5098190;28;20081;-72
2022/03/12 04:54:39;;;;;;;22.05;8.95;;;0.30;99.90;;;;;;5097810;28;20095;-72
2022/03/12 04:57:05;;;;;;;23.02;8.02;;;0.40;99.90;;;;;;5097795;28;20067;-72
2022/03/12 04:59:31;;;;;;;20.40;9.05;;;0.30;99.90;;;;;;5097222;28;20035;-73
2022/03/12 05:01:57;;;;;;;25.48;10.60;;;0.30;99.90;;;;;;5097413;28;20024;-72
2022/03/12 05:04:23;;;;;;;26.48;8.45;;;0.40;99.90;;;;;;5097547;28;20024;-72
2022/03/12 05:06:48;;;;;;;22.30;9.38;;;0.30;99.90;;;;;;5097289;28;20035;-72
2022/03/12 05:09:14;;;;;;;19.58;8.38;;;0.30;99.90;;;;;;5096043;28;20024;-72
2022/03/12 05:11:39;;;;;;;21.52;9.52;;;0.30;99.90;;;;;;5097224;28;20024;-72
2022/03/12 05:14:12;;;;;;;19.75;8.38;;;0.30;99.90;;;;;;5097138;28;20144;-72
2022/03/12 05:16:38;;;;;;;16.65;8.13;;;0.30;99.90;;;;;;5097151;28;20020;-72
2022/03/12 05:19:06;;;;;;;20.52;7.97;;;0.20;99.90;;;;;;5096788;28;20043;-72
2022/03/12 05:21:32;;;;;;;21.73;9.00;;;0.20;99.90;;;;;;5097120;28;20491;-72
2022/03/12 05:23:58;;;;;;;29.08;8.73;;;0.20;99.90;;;;;;5097519;28;20042;-72
2022/03/12 05:26:23;;;;;;;19.60;8.85;;;0.20;99.90;;;;;;5097135;28;20517;-72
2022/03/12 05:28:49;;;;;;;20.52;8.27;;;0.30;99.90;;;;;;5096945;28;20020;-72
2022/03/12 05:31:16;;;;;;;20.00;8.75;;;0.20;99.90;;;;;;5097083;28;20555;-72
2022/03/12 05:33:43;;;;;;;20.55;9.23;;;0.20;99.90;;;;;;5096673;28;20107;-72
2022/03/12 05:36:08;;;;;;;16.67;8.05;;;0.40;99.90;;;;;;5097205;28;20464;-72
2022/03/12 05:38:35;;;;;;;17.33;7.88;;;0.40;99.90;;;;;;5096882;28;20035;-72
2022/03/12 05:41:01;;;;;;;20.33;9.15;;;0.30;99.90;;;;;;5096819;28;20020;-72
2022/03/12 05:43:26;;;;;;;18.05;8.45;;;0.30;99.90;;;;;;5096552;28;20027;-72
2022/03/12 05:45:52;;;;;;;25.15;8.60;;;0.30;99.90;;;;;;5096502;28;20023;-72
2022/03/12 05:48:19;;;;;;;18.90;8.65;;;0.20;99.90;;;;;;5095198;28;20076;-72
2022/03/12 05:50:48;;;;;;;18.50;7.43;;;0.20;99.90;;;;;;5096535;28;20103;-72
2022/03/12 05:53:17;;;;;;;20.75;9.85;;;0.20;99.90;;;;;;5096367;28;20149;-72
2022/03/12 05:55:43;;;;;;;21.35;7.82;;;0.20;99.90;;;;;;5096347;28;20469;-72
2022/03/12 05:58:10;;;;;;;20.73;9.38;;;0.20;99.90;;;;;;5096271;28;20036;-72
2022/03/12 06:00:39;;;;;;;18.67;8.75;;;0.30;99.90;;;;;;5096190;28;20366;-72
2022/03/12 06:03:05;;;;;;;15.52;7.80;;;0.30;99.90;;;;;;5096693;28;20418;-72
2022/03/12 06:05:31;;;;;;;16.02;8.05;;;0.30;99.90;;;;;;5096280;28;20487;-72
2022/03/12 06:07:59;;;;;;;19.73;7.78;;;0.20;99.90;;;;;;5096508;28;20025;-72
2022/03/12 06:10:37;;;;;;;23.27;9.30;;;0.20;99.90;;;;;;5096096;28;20024;-72
2022/03/12 06:13:08;;;;;;;14.25;6.82;;;0.20;99.90;;;;;;5096573;28;20028;-72
2022/03/12 06:15:36;;;;;;;16.73;8.60;;;0.20;99.90;;;;;;5096378;28;20027;-72
2022/03/12 06:18:01;;;;;;;21.90;8.43;;;0.20;99.90;;;;;;5096023;28;20081;-72
2022/03/12 06:20:27;;;;;;;21.75;9.07;;;0.30;99.90;;;;;;5095814;28;20028;-72
2022/03/12 06:22:54;;;;;;;21.10;9.20;;;0.20;99.90;;;;;;5096451;28;20024;-72
2022/03/12 06:25:22;;;;;;;18.33;8.02;;;0.30;99.90;;;;;;5096238;28;20020;-72
2022/03/12 06:27:54;;;;;;;21.75;9.88;;;0.30;99.90;;;;;;5095754;28;20089;-72
2022/03/12 06:30:25;;;;;;;16.08;8.43;;;0.50;99.90;;;;;;5095707;28;20020;-72
2022/03/12 06:32:52;;;;;;;17.00;8.13;;;0.70;99.90;;;;;;5095780;28;20023;-72
2022/03/12 06:35:18;;;;;;;17.77;7.80;;;0.80;99.90;;;;;;5095185;28;20024;-72
2022/03/12 06:37:45;;;;;;;18.65;8.45;;;0.90;98.90;;;;;;5095515;28;20379;-72
2022/03/12 06:40:14;;;;;;;20.08;8.07;;;1.00;99.60;;;;;;5095477;28;20059;-72
2022/03/12 06:42:41;;;;;;;22.88;8.43;;;1.10;99.40;;;;;;5095391;28;20012;-72
2022/03/12 06:45:08;;;;;;;27.88;9.80;;;1.20;97.90;;;;;;5095493;28;20104;-72
2022/03/12 06:47:35;;;;;;;21.42;9.32;;;1.30;97.10;;;;;;5095576;28;20023;-72
2022/03/12 06:50:02;;;;;;;23.00;9.23;;;1.50;96.20;;;;;;5095469;28;20024;-72
2022/03/12 06:52:28;;;;;;;20.05;8.70;;;1.60;96.60;;;;;;5095942;28;20077;-72
2022/03/12 06:54:55;;;;;;;18.02;8.35;;;1.70;95.50;;;;;;5095513;28;20032;-72
2022/03/12 06:57:21;;;;;;;22.65;8.80;;;1.80;94.40;;;;;;5095150;28;20020;-72
2022/03/12 06:59:47;;;;;;;21.45;9.20;;;1.90;94.00;;;;;;5095141;28;20487;-72
2022/03/12 07:02:13;;;;;;;17.23;7.28;;;2.00;93.90;;;;;;5095523;28;20020;-72
2022/03/12 07:04:39;;;;;;;20.42;9.15;;;2.20;94.40;;;;;;5095298;28;20045;-72
2022/03/12 07:07:05;;;;;;;17.88;8.20;;;2.30;93.30;;;;;;5095300;28;20020;-72
2022/03/12 07:09:30;;;;;;;19.48;9.32;;;2.40;92.70;;;;;;5094956;28;20049;-72
2022/03/12 07:11:58;;;;;;;18.52;7.80;;;2.50;91.90;;;;;;5095290;28;20490;-72
2022/03/12 07:14:24;;;;;;;20.73;8.70;;;2.70;92.70;;;;;;5094872;28;20016;-72
2022/03/12 07:16:49;;;;;;;17.92;8.65;;;2.80;91.80;;;;;;5095020;28;20077;-72
2022/03/12 07:19:15;;;;;;;19.05;8.93;;;2.90;91.10;;;;;;5094633;28;20028;-72
2022/03/12 07:21:40;;;;;;;16.10;8.63;;;3.00;90.30;;;;;;5094896;28;20104;-72
2022/03/12 07:24:06;;;;;;;22.00;8.32;;;3.10;90.70;;;;;;5094956;28;20044;-72
2022/03/12 07:26:32;;;;;;;16.25;8.95;;;3.20;90.60;;;;;;5094908;28;20020;-72
2022/03/12 07:28:59;;;;;;;17.85;8.45;;;3.40;89.90;;;;;;5094618;28;20024;-72
2022/03/12 07:31:25;;;;;;;26.30;8.85;;;3.50;89.90;;;;;;5094644;28;20103;-72
2022/03/12 07:33:50;;;;;;;17.88;8.63;;;3.60;89.90;;;;;;5095037;28;20055;-72
2022/03/12 07:36:16;;;;;;;18.77;7.85;;;3.80;87.30;;;;;;5095127;28;20048;-72
2022/03/12 07:38:42;;;;;;;13.18;7.78;;;3.90;87.60;;;;;;5093226;28;20080;-72
2022/03/12 07:41:08;;;;;;;13.60;8.18;;;4.10;86.70;;;;;;5094323;28;20016;-72
2022/03/12 07:43:34;;;;;;;20.60;7.78;;;4.10;84.20;;;;;;5094509;28;20034;-72
2022/03/12 07:45:59;;;;;;;18.98;8.48;;;4.40;85.30;;;;;;5093846;28;20029;-72
2022/03/12 07:48:25;;;;;;;18.45;8.90;;;4.50;83.30;;;;;;5094699;28;20012;-72
2022/03/12 07:50:51;;;;;;;18.65;8.70;;;4.70;82.20;;;;;;5094714;28;20544;-72
2022/03/12 07:53:17;;;;;;;22.77;9.48;;;4.80;82.90;;;;;;5094291;28;20055;-72
2022/03/12 07:55:42;;;;;;;16.98;8.00;;;4.90;81.90;;;;;;5094621;28;20016;-72
2022/03/12 07:58:08;;;;;;;18.60;8.10;;;5.00;82.60;;;;;;5094398;28;20036;-72
2022/03/12 08:00:34;;;;;;;18.02;7.70;;;5.00;80.10;;;;;;5094068;28;20043;-72
2022/03/12 08:03:00;;;;;;;13.85;7.40;;;4.90;78.50;;;;;;5094119;28;20099;-72
2022/03/12 08:05:26;;;;;;;24.60;8.38;;;4.90;77.80;;;;;;5094461;28;20095;-72
2022/03/12 08:07:56;;;;;;;18.60;8.63;;;4.80;78.40;;;;;;5092749;28;20111;-72
2022/03/12 08:10:22;;;;;;;19.45;9.18;;;4.70;78.40;;;;;;5094531;28;20020;-72
2022/03/12 08:12:50;;;;;;;15.65;7.57;;;4.40;80.60;;;;;;5094424;28;20031;-72
2022/03/12 08:15:20;;;;;;;20.30;8.02;;;4.10;82.60;;;;;;5094428;28;20016;-72
2022/03/12 08:17:47;;;;;;;17.60;7.05;;;3.90;82.20;;;;;;5094066;28;20024;-72
2022/03/12 08:20:13;;;;;;;20.98;8.40;;;3.80;81.30;;;;;;5094236;28;20074;-73
2022/03/12 08:22:41;;;;;;;19.70;7.38;;;3.60;81.80;;;;;;5094317;28;20044;-72
2022/03/12 08:25:09;;;;;;;17.60;8.68;;;3.50;83.40;;;;;;5094049;28;20026;-72
2022/03/12 08:27:35;;;;;;;18.38;7.82;;;3.50;85.70;;;;;;5094164;28;20078;-72
2022/03/12 08:30:04;;;;;;;17.45;7.75;;;3.50;86.10;;;;;;5094420;28;20526;-73
2022/03/12 08:32:30;;;;;;;21.17;8.18;;;3.60;85.50;;;;;;5093913;28;20088;-73
2022/03/12 08:34:58;;;;;;;18.10;8.30;;;3.80;87.60;;;;;;5093845;28;20024;-73
2022/03/12 08:37:24;;;;;;;22.55;7.38;;;4.00;83.90;;;;;;5093888;28;20027;-73
2022/03/12 08:39:49;;;;;;;23.05;8.10;;;4.30;87.30;;;;;;5093769;28;20032;-73
2022/03/12 08:42:15;;;;;;;16.20;8.10;;;4.50;84.70;;;;;;5094058;28;20059;-73
2022/03/12 08:44:40;;;;;;;17.50;7.25;;;4.80;86.20;;;;;;5093953;28;20024;-73
2022/03/12 08:47:06;;;;;;;24.42;8.70;;;5.00;81.30;;;;;;5093798;28;20472;-73
2022/03/12 08:49:32;;;;;;;22.38;8.60;;;5.00;82.00;;;;;;5093835;28;20016;-73
2022/03/12 08:51:58;;;;;;;17.30;8.35;;;5.00;80.70;;;;;;5094066;28;20027;-73
2022/03/12 08:54:24;;;;;;;18.65;8.57;;;4.90;80.30;;;;;;5093750;28;20500;-72
2022/03/12 08:56:49;;;;;;;17.85;8.38;;;4.90;80.70;;;;;;5093935;28;20490;-72
2022/03/12 08:59:15;;;;;;;23.00;7.63;;;5.10;82.50;;;;;;5096893;28;20028;-72
2022/03/12 09:01:43;;;;;;;23.15;7.30;;;5.40;80.50;;;;;;5097563;28;20026;-73
2022/03/12 09:04:09;;;;;;;17.30;7.50;;;5.60;78.00;;;;;;5097436;28;20026;-73
2022/03/12 09:06:34;;;;;;;17.60;7.45;;;5.70;77.50;;;;;;5097379;28;20084;-73
2022/03/12 09:09:00;;;;;;;17.15;8.38;;;6.00;78.80;;;;;;5097242;28;20016;-73
2022/03/12 09:11:26;;;;;;;18.88;8.38;;;6.10;76.50;;;;;;5097238;28;20410;-73
2022/03/12 09:13:51;;;;;;;15.85;7.80;;;6.30;75.60;;;;;;5097460;28;20427;-73
2022/03/12 09:16:17;;;;;;;18.70;7.80;;;6.60;76.70;;;;;;5097256;28;20046;-73
2022/03/12 09:18:44;;;;;;;15.32;7.65;;;6.70;75.40;;;;;;5097490;28;20111;-72
2022/03/12 09:21:10;;;;;;;30.60;8.30;;;6.80;74.90;;;;;;5097303;28;20024;-73
2022/03/12 09:23:36;;;;;;;16.15;8.10;;;6.90;72.50;;;;;;5096902;28;20031;-73
2022/03/12 09:26:02;;;;;;;17.27;8.48;;;6.90;72.60;;;;;;5097254;28;20384;-73
2022/03/12 09:28:28;;;;;;;13.48;7.13;;;6.90;73.30;;;;;;5096907;28;20020;-73
2022/03/12 09:30:55;;;;;;;16.65;8.18;;;6.90;72.00;;;;;;5097020;28;20101;-73
2022/03/12 09:33:22;;;;;;;14.20;7.50;;;7.10;73.40;;;;;;5096861;28;20023;-73
2022/03/12 09:35:49;;;;;;;18.15;7.90;;;7.40;73.50;;;;;;5096876;28;20024;-73
2022/03/12 09:38:17;;;;;;;15.88;7.90;;;7.50;71.40;;;;;;5096757;28;20484;-73
2022/03/12 09:40:44;;;;;;;23.60;8.05;;;7.70;73.90;;;;;;5096973;28;20053;-73
2022/03/12 09:43:11;;;;;;;18.20;8.55;;;7.80;71.00;;;;;;5096881;28;20012;-73
2022/03/12 09:45:36;;;;;;;17.08;7.75;;;7.90;69.20;;;;;;5096947;28;20073;-73
2022/03/12 09:48:02;;;;;;;15.20;7.80;;;7.80;70.30;;;;;;5097003;28;20403;-73
2022/03/12 09:50:29;;;;;;;21.20;8.20;;;8.10;73.50;;;;;;5096622;28;20028;-73
2022/03/12 09:52:54;;;;;;;16.70;7.88;;;8.10;69.40;;;;;;5096502;28;20028;-73
2022/03/12 09:55:21;;;;;;;12.73;7.05;;;8.10;70.60;;;;;;5096990;28;20475;-73
2022/03/12 09:57:48;;;;;;;17.30;8.48;;;8.00;68.90;;;;;;5096575;28;20106;-73
2022/03/12 10:00:15;;;;;;;18.70;7.28;;;8.10;68.80;;;;;;5096302;28;20027;-73
2022/03/12 10:02:40;;;;;;;13.75;7.68;;;8.30;70.60;;;;;;5096321;28;20028;-73
2022/03/12 10:05:11;;;;;;;18.08;7.60;;;8.50;69.50;;;;;;5094982;28;20027;-73
2022/03/12 10:07:37;;;;;;;20.52;7.35;;;8.60;68.00;;;;;;5096315;28;20028;-73
2022/03/12 10:10:03;;;;;;;15.90;8.13;;;8.60;69.50;;;;;;5095695;28;20085;-72
2022/03/12 10:12:29;;;;;;;17.98;7.88;;;8.60;68.50;;;;;;5096598;28;20024;-72
2022/03/12 10:14:54;;;;;;;15.50;7.88;;;8.80;69.80;;;;;;5096058;28;20111;-72
2022/03/12 10:17:20;;;;;;;24.15;9.00;;;9.00;68.10;;;;;;5095774;28;20517;-72
2022/03/12 10:19:47;;;;;;;20.45;8.27;;;9.20;68.30;;;;;;5096233;28;20032;-74
2022/03/12 10:22:14;;;;;;;13.27;8.52;;;9.40;69.00;;;;;;5095895;28;20052;-74
2022/03/12 10:24:40;;;;;;;17.08;7.82;;;9.50;66.50;;;;;;5095940;28;20059;-73
2022/03/12 10:27:06;;;;;;;25.45;7.97;;;9.60;69.00;;;;;;5096314;28;20020;-73
2022/03/12 10:29:34;;;;;;;16.85;8.30;;;9.50;66.50;;;;;;5095613;28;20472;-73
2022/03/12 10:32:19;;;;;;;21.48;8.15;;;9.50;67.10;;;;;;5095916;28;20460;-73
2022/03/12 10:34:48;;;;;;;13.27;7.30;;;9.40;66.60;;;;;;5096389;28;20027;-73
2022/03/12 10:37:19;;;;;;;14.32;7.55;;;9.50;66.50;;;;;;5095581;28;20170;-73
2022/03/12 10:39:45;;;;;;;17.15;8.40;;;9.30;65.50;;;;;;5095831;28;20024;-73
2022/03/12 10:42:13;;;;;;;20.73;7.45;;;9.50;70.10;;;;;;5095457;28;20016;-73
2022/03/12 10:44:40;;;;;;;27.10;8.45;;;9.80;67.00;;;;;;5095498;28;20031;-73
2022/03/12 10:47:25;;;;;;;15.57;8.98;;;10.20;67.60;;;;;;5095557;28;20098;-73
2022/03/12 10:50:00;;;;;;;17.58;8.55;;;9.90;67.30;;;;;;5095619;28;20475;-74
2022/03/12 10:52:30;;;;;;;14.98;8.20;;;10.20;69.70;;;;;;5095316;28;20024;-74
2022/03/12 10:54:56;;;;;;;14.95;8.55;;;10.40;66.40;;;;;;5095833;28;20031;-74
2022/03/12 10:57:22;;;;;;;19.30;8.80;;;10.40;66.80;;;;;;5095224;28;20430;-73
2022/03/12 10:59:53;;;;;;;17.75;9.30;;;10.60;68.40;;;;;;5095543;28;20024;-74
2022/03/12 11:02:19;;;;;;;17.63;9.05;;;10.70;66.80;;;;;;5095532;28;20024;-74
2022/03/12 11:04:44;;;;;;;18.58;8.65;;;10.70;68.00;;;;;;5095062;28;20111;-74
2022/03/12 11:07:28;;;;;;;13.25;8.30;;;11.00;70.60;;;;;;5095376;28;20046;-74
2022/03/12 11:09:55;;;;;;;;;;;11.40;67.80;;;;;;5095429;28;20027;-74
2022/03/12 11:12:38;;;;;;;15.65;8.70;;;11.20;66.10;;;;;;5094969;28;19904;-74
2022/03/12 11:15:11;;;;;;;17.80;9.07;;;11.40;65.40;;;;;;5095301;28;20032;-73
2022/03/12 11:17:44;;;;;;;17.00;8.27;;;11.20;64.20;;;;;;5094951;28;20479;-74
2022/03/12 11:20:18;;;;;;;;;;;10.80;63.60;;;;;;5095133;28;20028;-74
2022/03/12 11:23:04;;;;;;;16.42;9.13;;;10.80;64.80;;;;;;5095472;28;19939;-74
2022/03/12 11:25:29;;;;;;;16.27;9.48;;;10.90;65.30;;;;;;5094784;28;20384;-73
2022/03/12 11:28:02;;;;;;;15.52;8.23;;;11.30;66.40;;;;;;5094822;28;20012;-73
2022/03/12 11:30:30;;;;;;;19.00;10.32;;;11.50;68.40;;;;;;5093358;28;20468;-73
2022/03/12 11:33:07;;;;;;;19.98;9.63;;;11.90;68.10;;;;;;5094671;28;20032;-73
2022/03/12 11:35:37;;;;;;;23.40;10.40;;;12.10;64.10;;;;;;5095139;28;20061;-74
2022/03/12 11:38:22;;;;;;;21.17;10.30;;;11.80;64.10;;;;;;5094432;28;20024;-74
2022/03/12 11:40:53;;;;;;;18.60;9.85;;;11.90;65.00;;;;;;5094664;28;20052;-74
2022/03/12 11:43:27;;;;;;;18.98;10.63;;;12.30;65.70;;;;;;5094429;28;20016;-74
2022/03/12 11:45:59;;;;;;;17.38;9.70;;;12.50;62.80;;;;;;5094343;28;20016;-74
2022/03/12 11:48:26;;;;;;;23.90;10.68;;;12.50;61.00;;;;;;5094613;28;20027;-73
2022/03/12 11:50:51;;;;;;;14.27;8.90;;;12.70;62.30;;;;;;5094343;28;20024;-73
2022/03/12 11:53:18;;;;;;;22.48;9.20;;;12.70;60.60;;;;;;5094282;28;20369;-74
2022/03/12 11:55:49;;;;;;;13.63;7.97;;;12.60;60.80;;;;;;5094296;28;20032;-74
2022/03/12 11:58:15;;;;;;;21.65;9.43;;;12.60;61.50;;;;;;5094285;28;20024;-73
2022/03/12 12:00:45;;;;;;;14.98;8.95;;;12.90;61.70;;;;;;5094103;28;20150;-74
2022/03/12 12:03:13;;;;;;;18.80;8.15;;;13.40;60.70;;;;;;5094214;28;20027;-74
2022/03/12 12:05:43;;;;;;;18.10;8.82;;;13.10;58.80;;;;;;5094189;28;20020;-74
2022/03/12 12:08:10;;;;;;;17.55;9.82;;;13.00;59.60;;;;;;5093939;28;20020;-73
2022/03/12 12:10:41;;;;;;;17.30;9.57;;;12.90;59.30;;;;;;5094017;28;20020;-73
2022/03/12 12:13:06;;;;;;;17.98;9.57;;;13.20;59.50;;;;;;5094195;28;20020;-73
2022/03/12 12:15:36;;;;;;;13.90;8.05;;;13.80;61.00;;;;;;5094064;28;20082;-74
2022/03/12 12:18:07;;;;;;;16.33;9.32;;;14.40;60.30;;;;;;5093985;28;20034;-74
2022/03/12 12:20:34;;;;;;;14.85;8.55;;;14.80;58.20;;;;;;5093949;28;20024;-74
2022/03/12 12:23:02;;;;;;;18.25;9.20;;;14.40;58.20;;;;;;5094593;28;20016;-74
2022/03/12 12:25:37;;;;;;;24.58;9.77;;;14.20;58.10;;;;;;5093983;28;20047;-74
2022/03/12 12:28:18;;;;;;;19.45;9.98;;;14.40;59.10;;;;;;5093870;28;20016;-74
2022/03/12 12:30:46;;;;;;;14.77;8.55;;;14.90;58.20;;;;;;5094453;28;20029;-74
2022/03/12 12:33:29;;;;;;;14.07;8.80;;;14.70;57.20;;;;;;5096253;28;20149;-74
2022/03/12 12:36:10;;;;;;;19.15;9.25;;;14.50;56.40;;;;;;5098305;28;20115;-74
2022/03/12 12:38:37;;;;;;;17.40;9.25;;;14.60;55.80;;;;;;5097788;28;20077;-74
2022/03/12 12:41:03;;;;;;;13.25;8.32;;;15.00;56.40;;;;;;5097812;28;20024;-74
2022/03/12 12:43:34;;;;;;;21.00;9.25;;;14.90;56.30;;;;;;5098233;28;20072;-74
2022/03/12 12:46:08;;;;;;;21.77;9.43;;;14.10;56.10;;;;;;5097647;28;20017;-74
2022/03/12 12:48:34;;;;;;;27.55;11.63;;;13.70;56.70;;;;;;5097908;28;20023;-74